createdAt,value
2024-01-16T00:00:43.783Z,8.10
2024-01-16T00:01:43.721Z,7.40
2024-01-16T00:02:43.781Z,7.50
2024-01-16T00:03:43.715Z,7.80
2024-01-16T00:04:43.672Z,8.30
2024-01-16T00:05:43.718Z,8.00
2024-01-16T00:06:46.670Z,7.30
2024-01-16T00:07:43.605Z,7.40
2024-01-16T00:08:43.691Z,7.60
2024-01-16T00:09:43.667Z,7.10
2024-01-16T00:10:43.570Z,7.60
2024-01-16T00:11:43.672Z,7.40
2024-01-16T00:12:43.574Z,7.10
2024-01-16T00:13:43.543Z,7.50
2024-01-16T00:14:43.777Z,7.00
2024-01-16T00:15:43.514Z,7.00
2024-01-16T00:16:43.537Z,7.10
2024-01-16T00:17:43.638Z,7.30
2024-01-16T00:18:43.584Z,6.90
2024-01-16T00:19:43.455Z,7.50
2024-01-16T00:20:43.592Z,7.20
2024-01-16T00:21:43.485Z,6.40
2024-01-16T00:22:43.411Z,6.90
2024-01-16T00:23:43.526Z,6.60
2024-01-16T00:24:43.412Z,6.30
2024-01-16T00:25:43.416Z,6.30
2024-01-16T00:26:43.525Z,7.00
2024-01-16T00:27:43.375Z,7.50
2024-01-16T00:28:43.363Z,7.70
2024-01-16T00:29:43.451Z,7.40
2024-01-16T00:30:43.316Z,7.30
2024-01-16T00:31:43.417Z,7.40
2024-01-16T00:32:43.388Z,6.10
2024-01-16T00:33:43.493Z,6.40
2024-01-16T00:34:43.272Z,6.60
2024-01-16T00:35:43.411Z,5.70
2024-01-16T00:36:43.244Z,6.60
2024-01-16T00:37:43.234Z,5.40
2024-01-16T00:38:43.274Z,5.90
2024-01-16T00:39:43.292Z,5.20
2024-01-16T00:40:43.195Z,5.40
2024-01-16T00:41:43.334Z,5.20
2024-01-16T00:42:43.166Z,5.80
2024-01-16T00:43:43.156Z,5.50
2024-01-16T00:44:43.348Z,5.80
2024-01-16T00:45:43.210Z,6.40
2024-01-16T00:46:43.130Z,5.70
2024-01-16T00:47:43.225Z,5.60
2024-01-16T00:48:43.297Z,6.40
2024-01-16T00:49:43.104Z,7.10
2024-01-16T00:50:43.149Z,6.40
2024-01-16T00:51:43.069Z,6.60
2024-01-16T00:52:43.032Z,5.90
2024-01-16T00:53:43.054Z,6.60
2024-01-16T00:54:43.009Z,7.10
2024-01-16T00:55:42.998Z,5.50
2024-01-16T00:56:43.088Z,5.90
2024-01-16T00:57:43.028Z,5.90
2024-01-16T00:58:42.988Z,5.00
2024-01-16T00:59:42.973Z,5.00
2024-01-16T01:00:42.966Z,5.70
2024-01-16T01:01:42.958Z,5.50
2024-01-16T01:02:42.950Z,5.70
2024-01-16T01:03:42.944Z,5.30
2024-01-16T01:04:42.991Z,5.00
2024-01-16T01:05:43.110Z,5.40
2024-01-16T01:06:42.931Z,5.60
2024-01-16T01:07:42.858Z,6.30
2024-01-16T01:08:42.862Z,5.50
2024-01-16T01:09:42.804Z,5.50
2024-01-16T01:10:42.879Z,5.00
2024-01-16T01:11:42.860Z,5.50
2024-01-16T01:12:42.809Z,5.50
2024-01-16T01:13:42.805Z,5.80
2024-01-16T01:14:42.883Z,4.90
2024-01-16T01:15:42.762Z,4.90
2024-01-16T01:16:42.752Z,5.20
2024-01-16T01:17:42.782Z,4.80
2024-01-16T01:18:42.819Z,4.70
2024-01-16T01:19:42.690Z,4.80
2024-01-16T01:20:42.690Z,4.90
2024-01-16T01:21:42.714Z,4.90
2024-01-16T01:22:42.685Z,4.70
2024-01-16T01:23:42.680Z,4.50
2024-01-16T01:24:42.623Z,5.20
2024-01-16T01:25:42.655Z,5.20
2024-01-16T01:26:42.726Z,4.80
2024-01-16T01:27:42.631Z,4.90
2024-01-16T01:28:42.761Z,4.90
2024-01-16T01:29:42.641Z,5.20
2024-01-16T01:30:42.612Z,5.00
2024-01-16T01:31:42.561Z,4.80
2024-01-16T01:32:42.632Z,4.50
2024-01-16T01:33:42.564Z,5.20
2024-01-16T01:34:42.520Z,4.90
2024-01-16T01:35:42.622Z,4.80
2024-01-16T01:36:42.482Z,4.70
2024-01-16T01:37:42.458Z,5.50
2024-01-16T01:38:42.478Z,5.20
2024-01-16T01:39:42.455Z,5.20
2024-01-16T01:40:42.461Z,5.20
2024-01-16T01:41:42.532Z,5.00
2024-01-16T01:42:42.430Z,5.70
2024-01-16T01:43:42.405Z,4.70
2024-01-16T01:44:42.410Z,4.90
2024-01-16T01:45:42.427Z,5.10
2024-01-16T01:46:42.321Z,5.60
2024-01-16T01:47:42.405Z,5.20
2024-01-16T01:48:42.413Z,5.20
2024-01-16T01:49:42.287Z,5.70
2024-01-16T01:50:42.307Z,5.60
2024-01-16T01:51:42.981Z,5.50
2024-01-16T01:52:42.412Z,5.40
2024-01-16T01:53:42.276Z,5.10
2024-01-16T01:54:42.214Z,5.90
2024-01-16T01:55:42.279Z,5.70
2024-01-16T01:56:42.223Z,5.50
2024-01-16T01:57:42.271Z,5.50
2024-01-16T01:58:42.182Z,5.30
2024-01-16T01:59:42.270Z,5.20
2024-01-16T02:00:42.168Z,5.60
2024-01-16T02:01:50.839Z,5.30
2024-01-16T02:02:42.241Z,5.90
2024-01-16T02:03:42.170Z,5.30
2024-01-16T02:04:42.092Z,5.30
2024-01-16T02:05:42.124Z,5.40
2024-01-16T02:06:42.094Z,5.70
2024-01-16T02:07:42.041Z,5.30
2024-01-16T02:08:42.240Z,5.10
2024-01-16T02:09:42.005Z,5.20
2024-01-16T02:10:42.011Z,5.40
2024-01-16T02:11:42.079Z,5.10
2024-01-16T02:12:42.002Z,5.60
2024-01-16T02:13:41.987Z,5.40
2024-01-16T02:14:42.020Z,5.80
2024-01-16T02:15:41.932Z,5.80
2024-01-16T02:16:41.943Z,5.50
2024-01-16T02:17:41.991Z,5.50
2024-01-16T02:18:42.014Z,5.50
2024-01-16T02:19:41.910Z,5.90
2024-01-16T02:20:41.953Z,5.70
2024-01-16T02:21:41.885Z,5.70
2024-01-16T02:22:41.861Z,5.40
2024-01-16T02:23:41.913Z,6.10
2024-01-16T02:24:41.830Z,5.40
2024-01-16T02:25:41.879Z,5.70
2024-01-16T02:26:41.841Z,6.30
2024-01-16T02:27:41.804Z,5.20
2024-01-16T02:28:41.769Z,5.30
2024-01-16T02:29:41.779Z,5.50
2024-01-16T02:30:41.815Z,5.20
2024-01-16T02:31:41.771Z,5.80
2024-01-16T02:32:41.860Z,5.60
2024-01-16T02:33:41.834Z,5.20
2024-01-16T02:34:41.706Z,5.60
2024-01-16T02:35:41.759Z,5.60
2024-01-16T02:36:41.671Z,5.40
2024-01-16T02:37:41.702Z,5.20
2024-01-16T02:38:44.490Z,5.60
2024-01-16T02:39:41.650Z,5.30
2024-01-16T02:40:41.620Z,5.10
2024-01-16T02:41:41.647Z,5.40
2024-01-16T02:42:41.655Z,5.20
2024-01-16T02:43:41.561Z,5.40
2024-01-16T02:44:41.618Z,5.10
2024-01-16T02:45:41.568Z,5.40
2024-01-16T02:46:41.566Z,5.80
2024-01-16T02:47:41.616Z,6.10
2024-01-16T02:48:41.626Z,6.20
2024-01-16T02:49:41.579Z,5.70
2024-01-16T02:50:41.521Z,6.00
2024-01-16T02:51:41.505Z,6.10
2024-01-16T02:52:41.465Z,6.20
2024-01-16T02:53:41.745Z,6.40
2024-01-16T02:54:41.485Z,6.00
2024-01-16T02:55:41.489Z,6.60
2024-01-16T02:56:41.526Z,6.80
2024-01-16T02:57:41.456Z,6.80
2024-01-16T02:58:41.445Z,6.50
2024-01-16T02:59:41.464Z,7.70
2024-01-16T03:00:41.385Z,7.80
2024-01-16T03:01:41.406Z,7.60
2024-01-16T03:02:41.440Z,7.80
2024-01-16T03:03:41.481Z,7.60
2024-01-16T03:04:41.343Z,7.70
2024-01-16T03:05:41.407Z,7.40
2024-01-16T03:06:41.401Z,8.10
2024-01-16T03:07:41.305Z,7.40
2024-01-16T03:08:41.345Z,8.10
2024-01-16T03:09:41.251Z,7.60
2024-01-16T03:10:41.250Z,7.90
2024-01-16T03:11:41.296Z,7.60
2024-01-16T03:12:41.214Z,8.00
2024-01-16T03:13:41.208Z,8.00
2024-01-16T03:14:41.308Z,8.20
2024-01-16T03:15:41.229Z,8.60
2024-01-16T03:16:41.214Z,8.10
2024-01-16T03:17:41.237Z,8.90
2024-01-16T03:18:41.201Z,8.40
2024-01-16T03:19:41.245Z,8.90
2024-01-16T03:20:41.271Z,8.60
2024-01-16T03:21:41.101Z,9.00
2024-01-16T03:22:41.250Z,8.90
2024-01-16T03:23:41.145Z,8.60
2024-01-16T03:24:41.094Z,9.30
2024-01-16T03:25:41.048Z,8.60
2024-01-16T03:26:41.111Z,8.90
2024-01-16T03:27:55.694Z,8.50
2024-01-16T03:28:41.033Z,9.20
2024-01-16T03:29:41.114Z,9.50
2024-01-16T03:30:41.191Z,9.70
2024-01-16T03:31:41.070Z,9.40
2024-01-16T03:32:50.584Z,9.20
2024-01-16T03:33:41.051Z,9.80
2024-01-16T03:34:41.013Z,9.30
2024-01-16T03:35:40.933Z,8.20
2024-01-16T03:36:40.912Z,9.30
2024-01-16T03:37:40.926Z,9.00
2024-01-16T03:38:40.953Z,8.50
2024-01-16T03:39:40.883Z,8.90
2024-01-16T03:40:40.881Z,8.80
2024-01-16T03:41:40.881Z,8.90
2024-01-16T03:42:40.843Z,8.90
2024-01-16T03:43:40.815Z,8.90
2024-01-16T03:44:40.881Z,8.90
2024-01-16T03:45:40.808Z,9.30
2024-01-16T03:46:40.839Z,8.90
2024-01-16T03:47:40.866Z,9.30
2024-01-16T03:48:40.976Z,8.80
2024-01-16T03:49:40.806Z,8.70
2024-01-16T03:50:40.766Z,8.90
2024-01-16T03:51:40.760Z,8.90
2024-01-16T03:52:40.766Z,8.70
2024-01-16T03:53:40.725Z,8.90
2024-01-16T03:54:40.677Z,9.20
2024-01-16T03:55:40.719Z,8.90
2024-01-16T03:56:40.708Z,9.20
2024-01-16T03:57:40.640Z,9.70
2024-01-16T03:58:40.647Z,8.90
2024-01-16T03:59:40.745Z,9.20
2024-01-16T04:00:40.714Z,9.10
2024-01-16T04:01:40.593Z,9.50
2024-01-16T04:02:40.678Z,9.90
2024-01-16T04:03:40.608Z,9.60
2024-01-16T04:04:40.553Z,9.60
2024-01-16T04:05:40.618Z,8.60
2024-01-16T04:06:40.595Z,9.30
2024-01-16T04:07:40.599Z,9.10
2024-01-16T04:08:40.584Z,8.70
2024-01-16T04:09:40.565Z,8.90
2024-01-16T04:10:40.562Z,8.40
2024-01-16T04:11:40.515Z,9.20
2024-01-16T04:12:40.523Z,9.00
2024-01-16T04:13:40.418Z,9.20
2024-01-16T04:14:40.574Z,8.60
2024-01-16T04:15:40.680Z,9.20
2024-01-16T04:16:40.449Z,9.00
2024-01-16T04:17:40.433Z,9.50
2024-01-16T04:18:40.452Z,10.00
2024-01-16T04:19:40.418Z,9.30
2024-01-16T04:20:40.388Z,9.70
2024-01-16T04:21:40.330Z,9.30
2024-01-16T04:22:40.353Z,10.00
2024-01-16T04:23:40.369Z,9.20
2024-01-16T04:24:40.295Z,10.20
2024-01-16T04:25:40.313Z,8.90
2024-01-16T04:26:40.330Z,9.70
2024-01-16T04:27:40.309Z,9.10
2024-01-16T04:28:40.265Z,9.00
2024-01-16T04:29:40.410Z,9.00
2024-01-16T04:30:40.533Z,8.80
2024-01-16T04:31:40.332Z,7.70
2024-01-16T04:32:40.368Z,8.00
2024-01-16T04:33:40.460Z,7.60
2024-01-16T04:34:40.173Z,8.60
2024-01-16T04:35:40.215Z,7.80
2024-01-16T04:36:40.180Z,8.10
2024-01-16T04:37:40.115Z,7.80
2024-01-16T04:38:40.228Z,7.50
2024-01-16T04:39:40.083Z,6.80
2024-01-16T04:40:40.146Z,7.40
2024-01-16T04:41:40.110Z,6.90
2024-01-16T04:42:40.366Z,7.10
2024-01-16T04:43:40.142Z,6.80
2024-01-16T04:44:40.168Z,7.00
2024-01-16T04:45:39.996Z,6.40
2024-01-16T04:46:40.023Z,6.30
2024-01-16T04:47:40.136Z,6.00
2024-01-16T04:48:40.045Z,6.40
2024-01-16T04:49:40.076Z,6.10
2024-01-16T04:50:40.025Z,6.70
2024-01-16T04:51:39.974Z,6.20
2024-01-16T04:52:39.940Z,6.20
2024-01-16T04:53:39.943Z,6.10
2024-01-16T04:54:39.958Z,6.00
2024-01-16T04:55:39.888Z,6.20
2024-01-16T04:56:40.052Z,5.90
2024-01-16T04:57:39.878Z,5.80
2024-01-16T04:58:39.933Z,4.90
2024-01-16T04:59:39.874Z,5.10
2024-01-16T05:00:39.914Z,5.00
2024-01-16T05:01:39.807Z,5.00
2024-01-16T05:02:40.027Z,5.10
2024-01-16T05:03:39.909Z,5.20
2024-01-16T05:04:39.809Z,5.10
2024-01-16T05:05:39.873Z,5.30
2024-01-16T05:06:39.903Z,5.60
2024-01-16T05:07:39.805Z,5.90
2024-01-16T05:08:39.788Z,5.90
2024-01-16T05:09:39.734Z,5.20
2024-01-16T05:10:40.919Z,5.50
2024-01-16T05:11:39.727Z,5.60
2024-01-16T05:12:39.673Z,5.90
2024-01-16T05:13:39.668Z,5.40
2024-01-16T05:14:39.740Z,5.40
2024-01-16T05:15:39.659Z,5.40
2024-01-16T05:16:39.621Z,5.00
2024-01-16T05:17:39.790Z,5.10
2024-01-16T05:18:40.070Z,5.10
2024-01-16T05:19:39.610Z,5.10
2024-01-16T05:20:39.770Z,5.50
2024-01-16T05:21:39.566Z,5.20
2024-01-16T05:22:39.578Z,5.60
2024-01-16T05:23:39.645Z,5.40
2024-01-16T05:24:39.554Z,4.90
2024-01-16T05:25:39.522Z,5.10
2024-01-16T05:26:39.611Z,4.50
2024-01-16T05:27:39.482Z,4.40
2024-01-16T05:28:39.517Z,4.50
2024-01-16T05:29:43.131Z,4.20
2024-01-16T05:30:40.491Z,5.00
2024-01-16T05:31:39.455Z,4.40
2024-01-16T05:32:39.465Z,4.40
2024-01-16T05:33:39.476Z,4.60
2024-01-16T05:34:39.502Z,4.70
2024-01-16T05:35:39.518Z,3.90
2024-01-16T05:36:39.374Z,4.10
2024-01-16T05:37:39.349Z,4.40
2024-01-16T05:38:39.437Z,4.80
2024-01-16T05:39:39.334Z,3.80
2024-01-16T05:40:39.317Z,3.90
2024-01-16T05:41:39.417Z,4.50
2024-01-16T05:42:39.297Z,5.20
2024-01-16T05:43:39.309Z,4.90
2024-01-16T05:44:39.314Z,4.50
2024-01-16T05:45:39.239Z,5.10
2024-01-16T05:46:39.304Z,4.50
2024-01-16T05:47:39.316Z,4.80
2024-01-16T05:48:39.326Z,5.10
2024-01-16T05:49:39.326Z,5.30
2024-01-16T05:50:39.324Z,5.40
2024-01-16T05:51:39.156Z,5.10
2024-01-16T05:52:41.236Z,5.20
2024-01-16T05:53:39.169Z,5.00
2024-01-16T05:54:39.163Z,5.00
2024-01-16T05:55:39.177Z,5.20
2024-01-16T05:56:39.151Z,6.00
2024-01-16T05:57:39.143Z,5.90
2024-01-16T05:58:39.068Z,5.80
2024-01-16T05:59:39.147Z,6.20
2024-01-16T06:00:39.083Z,6.10
2024-01-16T06:01:39.064Z,6.70
2024-01-16T06:02:39.069Z,6.40
2024-01-16T06:03:39.027Z,6.50
2024-01-16T06:04:39.188Z,6.40
2024-01-16T06:05:39.231Z,7.60
2024-01-16T06:06:39.154Z,8.40
2024-01-16T06:07:38.998Z,8.10
2024-01-16T06:08:39.067Z,8.20
2024-01-16T06:09:38.953Z,8.00
2024-01-16T06:10:38.916Z,8.90
2024-01-16T06:11:53.674Z,8.20
2024-01-16T06:12:38.939Z,8.90
2024-01-16T06:13:38.922Z,8.60
2024-01-16T06:14:38.942Z,9.40
2024-01-16T06:15:38.882Z,10.70
2024-01-16T06:16:38.854Z,11.40
2024-01-16T06:17:38.928Z,12.10
2024-01-16T06:18:38.923Z,12.20
2024-01-16T06:19:38.924Z,11.30
2024-01-16T06:20:38.851Z,12.00
2024-01-16T06:21:38.830Z,11.70
2024-01-16T06:22:38.764Z,13.40
2024-01-16T06:23:38.810Z,12.60
2024-01-16T06:24:38.733Z,13.40
2024-01-16T06:25:38.728Z,12.50
2024-01-16T06:26:38.787Z,13.30
2024-01-16T06:27:38.716Z,12.80
2024-01-16T06:28:38.798Z,12.40
2024-01-16T06:29:38.750Z,12.40
2024-01-16T06:30:38.830Z,12.80
2024-01-16T06:31:38.702Z,12.90
2024-01-16T06:32:38.866Z,12.50
2024-01-16T06:33:38.876Z,13.20
2024-01-16T06:34:38.635Z,12.60
2024-01-16T06:35:38.666Z,11.80
2024-01-16T06:36:38.609Z,12.30
2024-01-16T06:37:38.610Z,11.80
2024-01-16T06:38:38.622Z,12.70
2024-01-16T06:39:38.607Z,11.80
2024-01-16T06:40:38.571Z,11.10
2024-01-16T06:41:38.562Z,11.40
2024-01-16T06:42:38.493Z,10.80
2024-01-16T06:43:38.593Z,11.20
2024-01-16T06:44:38.540Z,11.20
2024-01-16T06:45:38.497Z,10.90
2024-01-16T06:46:38.485Z,10.40
2024-01-16T06:47:38.482Z,10.00
2024-01-16T06:48:38.506Z,10.20
2024-01-16T06:49:38.501Z,10.00
2024-01-16T06:50:38.433Z,10.90
2024-01-16T06:51:38.390Z,10.60
2024-01-16T06:52:38.569Z,9.90
2024-01-16T06:53:38.629Z,10.20
2024-01-16T06:54:38.399Z,9.70
2024-01-16T06:55:38.522Z,9.60
2024-01-16T06:56:38.464Z,10.70
2024-01-16T06:57:38.349Z,10.10
2024-01-16T06:58:38.325Z,10.10
2024-01-16T06:59:38.404Z,9.50
2024-01-16T07:00:38.600Z,9.90
2024-01-16T07:01:38.284Z,10.10
2024-01-16T07:02:38.416Z,9.80
2024-01-16T07:03:38.314Z,9.70
2024-01-16T07:04:38.427Z,10.00
2024-01-16T07:05:38.479Z,10.20
2024-01-16T07:06:38.372Z,10.00
2024-01-16T07:07:38.234Z,10.30
2024-01-16T07:08:38.260Z,10.10
2024-01-16T07:09:38.176Z,9.60
2024-01-16T07:10:38.157Z,9.80
2024-01-16T07:11:38.187Z,9.30
2024-01-16T07:12:38.239Z,9.50
2024-01-16T07:13:38.174Z,9.60
2024-01-16T07:14:38.248Z,9.60
2024-01-16T07:15:38.077Z,9.40
2024-01-16T07:16:38.066Z,9.20
2024-01-16T07:17:38.308Z,10.10
2024-01-16T07:18:38.340Z,9.60
2024-01-16T07:19:49.762Z,9.60
2024-01-16T07:20:38.062Z,9.10
2024-01-16T07:21:38.145Z,9.10
2024-01-16T07:22:38.103Z,8.20
2024-01-16T07:24:10.172Z,9.90
2024-01-16T07:24:40.588Z,9.30
2024-01-16T07:25:50.864Z,9.30
2024-01-16T07:26:37.951Z,8.80
2024-01-16T07:27:37.907Z,9.40
2024-01-16T07:28:37.915Z,8.50
2024-01-16T07:29:37.916Z,8.10
2024-01-16T07:30:37.972Z,8.60
2024-01-16T07:31:38.117Z,7.90
2024-01-16T07:32:38.002Z,8.00
2024-01-16T07:33:38.162Z,7.80
2024-01-16T07:34:38.003Z,7.90
2024-01-16T07:35:37.840Z,7.00
2024-01-16T07:36:37.807Z,7.10
2024-01-16T07:37:37.774Z,6.90
2024-01-16T07:38:37.945Z,7.00
2024-01-16T07:39:37.820Z,6.90
2024-01-16T07:40:37.795Z,7.30
2024-01-16T07:41:37.845Z,6.60
2024-01-16T07:42:37.841Z,6.50
2024-01-16T07:43:37.739Z,6.10
2024-01-16T07:44:37.771Z,6.90
2024-01-16T07:45:37.658Z,6.90
2024-01-16T07:46:37.686Z,7.10
2024-01-16T07:47:37.809Z,6.30
2024-01-16T07:48:37.727Z,6.40
2024-01-16T07:49:37.669Z,5.90
2024-01-16T07:50:37.698Z,6.20
2024-01-16T07:51:37.617Z,6.10
2024-01-16T07:52:37.634Z,5.20
2024-01-16T07:53:46.239Z,5.10
2024-01-16T07:54:37.785Z,5.50
2024-01-16T07:55:37.563Z,5.40
2024-01-16T07:56:37.618Z,5.80
2024-01-16T07:57:37.517Z,5.20
2024-01-16T07:58:37.509Z,5.60
2024-01-16T07:59:37.512Z,5.70
2024-01-16T08:00:37.549Z,4.80
2024-01-16T08:01:37.467Z,4.60
2024-01-16T08:02:37.755Z,5.30
2024-01-16T08:03:37.525Z,5.40
2024-01-16T08:04:37.461Z,5.20
2024-01-16T08:05:37.452Z,5.40
2024-01-16T08:06:37.782Z,5.30
2024-01-16T08:07:37.385Z,5.10
2024-01-16T08:08:37.547Z,5.20
2024-01-16T08:09:37.382Z,4.90
2024-01-16T08:10:37.405Z,4.30
2024-01-16T08:11:37.347Z,5.00
2024-01-16T08:12:37.326Z,4.60
2024-01-16T08:13:37.402Z,4.70
2024-01-16T08:14:37.465Z,3.90
2024-01-16T08:15:37.284Z,4.70
2024-01-16T08:16:37.296Z,5.00
2024-01-16T08:17:37.465Z,4.40
2024-01-16T08:18:37.642Z,5.40
2024-01-16T08:19:37.360Z,4.90
2024-01-16T08:20:37.471Z,4.90
2024-01-16T08:21:37.241Z,4.70
2024-01-16T08:22:37.339Z,4.60
2024-01-16T08:23:49.725Z,4.80
2024-01-16T08:24:37.285Z,4.40
2024-01-16T08:25:37.200Z,4.30
2024-01-16T08:26:37.224Z,4.30
2024-01-16T08:27:37.196Z,4.20
2024-01-16T08:28:37.195Z,4.20
2024-01-16T08:29:37.140Z,4.00
2024-01-16T08:30:37.190Z,3.30
2024-01-16T08:31:37.332Z,4.00
2024-01-16T08:32:37.188Z,3.70
2024-01-16T08:33:43.372Z,4.20
2024-01-16T08:34:38.224Z,3.80
2024-01-16T08:35:37.287Z,3.30
2024-01-16T08:36:37.082Z,4.00
2024-01-16T08:37:37.089Z,3.50
2024-01-16T08:38:37.078Z,3.70
2024-01-16T08:39:37.017Z,3.70
2024-01-16T08:40:37.067Z,3.70
2024-01-16T08:41:37.037Z,3.70
2024-01-16T08:42:37.034Z,3.80
2024-01-16T08:43:36.996Z,5.00
2024-01-16T08:44:36.995Z,3.10
2024-01-16T08:45:36.969Z,3.60
2024-01-16T08:46:36.954Z,3.60
2024-01-16T08:47:37.006Z,3.00
2024-01-16T08:48:37.118Z,4.10
2024-01-16T08:49:36.952Z,3.60
2024-01-16T08:50:36.895Z,3.80
2024-01-16T08:51:36.845Z,4.00
2024-01-16T08:52:36.891Z,2.80
2024-01-16T08:53:36.896Z,3.40
2024-01-16T08:54:36.864Z,3.30
2024-01-16T08:55:36.859Z,3.40
2024-01-16T08:56:36.861Z,3.10
2024-01-16T08:57:36.775Z,3.50
2024-01-16T08:58:36.811Z,3.30
2024-01-16T08:59:36.808Z,3.80
2024-01-16T09:00:36.797Z,3.40
2024-01-16T09:01:36.726Z,3.40
2024-01-16T09:02:36.758Z,3.00
2024-01-16T09:03:36.700Z,2.90
2024-01-16T09:04:36.700Z,4.00
2024-01-16T09:05:36.755Z,4.20
2024-01-16T09:06:36.801Z,3.30
2024-01-16T09:07:36.662Z,3.60
2024-01-16T09:08:36.676Z,3.40
2024-01-16T09:09:36.668Z,3.30
2024-01-16T09:10:36.600Z,3.60
2024-01-16T09:11:36.651Z,3.60
2024-01-16T09:12:36.645Z,3.20
2024-01-16T09:13:36.566Z,3.40
2024-01-16T09:14:36.628Z,3.40
2024-01-16T09:15:36.562Z,3.30
2024-01-16T09:16:36.600Z,3.60
2024-01-16T09:17:36.682Z,3.50
2024-01-16T09:18:36.774Z,3.70
2024-01-16T09:19:36.720Z,3.70
2024-01-16T09:20:36.555Z,3.30
2024-01-16T09:21:36.468Z,3.40
2024-01-16T09:22:36.447Z,3.30
2024-01-16T09:23:36.469Z,3.30
2024-01-16T09:24:36.478Z,4.10
2024-01-16T09:25:36.422Z,3.50
2024-01-16T09:26:36.515Z,3.40
2024-01-16T09:27:36.392Z,3.30
2024-01-16T09:28:36.382Z,3.50
2024-01-16T09:29:36.413Z,3.90
2024-01-16T09:30:36.441Z,3.80
2024-01-16T09:31:36.348Z,3.40
2024-01-16T09:32:36.473Z,3.10
2024-01-16T09:33:36.482Z,3.30
2024-01-16T09:34:36.352Z,3.90
2024-01-16T09:35:36.336Z,3.60
2024-01-16T09:36:36.260Z,3.30
2024-01-16T09:37:36.240Z,3.60
2024-01-16T09:38:36.348Z,3.40
2024-01-16T09:39:36.233Z,3.50
2024-01-16T09:40:36.305Z,4.00
2024-01-16T09:41:36.371Z,3.20
2024-01-16T09:42:36.291Z,3.20
2024-01-16T09:43:36.200Z,3.70
2024-01-16T09:44:36.220Z,3.70
2024-01-16T09:45:36.213Z,4.00
2024-01-16T09:46:36.254Z,3.00
2024-01-16T09:47:36.235Z,3.50
2024-01-16T09:48:36.316Z,3.80
2024-01-16T09:49:36.202Z,4.00
2024-01-16T09:50:36.195Z,4.30
2024-01-16T09:51:36.108Z,3.20
2024-01-16T09:52:36.189Z,3.60
2024-01-16T09:53:36.100Z,3.20
2024-01-16T09:54:36.056Z,3.70
2024-01-16T09:55:36.041Z,3.50
2024-01-16T09:56:36.093Z,3.00
2024-01-16T09:57:36.006Z,3.90
2024-01-16T09:58:36.022Z,4.30
2024-01-16T09:59:36.066Z,4.10
2024-01-16T10:00:36.190Z,3.70
2024-01-16T10:01:35.951Z,3.40
2024-01-16T10:02:36.046Z,3.40
2024-01-16T10:03:36.050Z,3.20
2024-01-16T10:04:35.925Z,3.60
2024-01-16T10:05:35.971Z,3.60
2024-01-16T10:06:36.124Z,4.90
2024-01-16T10:07:35.926Z,3.70
2024-01-16T10:08:35.901Z,3.70
2024-01-16T10:09:35.971Z,3.00
2024-01-16T10:10:46.141Z,3.40
2024-01-16T10:11:36.937Z,3.60
2024-01-16T10:12:35.784Z,4.00
2024-01-16T10:13:35.827Z,3.80
2024-01-16T10:14:35.795Z,3.40
2024-01-16T10:15:35.846Z,4.00
2024-01-16T10:16:35.785Z,3.30
2024-01-16T10:17:35.799Z,3.40
2024-01-16T10:18:35.992Z,3.90
2024-01-16T10:19:43.562Z,3.90
2024-01-16T10:20:36.737Z,3.20
2024-01-16T10:21:35.724Z,4.00
2024-01-16T10:22:35.686Z,3.70
2024-01-16T10:23:35.765Z,3.40
2024-01-16T10:24:35.664Z,4.20
2024-01-16T10:25:35.658Z,3.40
2024-01-16T10:26:35.709Z,3.60
2024-01-16T10:27:35.620Z,3.50
2024-01-16T10:28:35.621Z,3.60
2024-01-16T10:29:43.591Z,3.50
2024-01-16T10:30:36.778Z,3.50
2024-01-16T10:31:35.797Z,3.90
2024-01-16T10:32:35.675Z,4.80
2024-01-16T10:33:38.915Z,4.00
2024-01-16T10:34:35.615Z,3.80
2024-01-16T10:35:35.561Z,3.80
2024-01-16T10:36:35.517Z,3.70
2024-01-16T10:37:35.521Z,3.60
2024-01-16T10:38:35.516Z,3.50
2024-01-16T10:39:41.275Z,3.20
2024-01-16T10:40:36.491Z,3.50
2024-01-16T10:41:35.479Z,4.00
2024-01-16T10:42:35.434Z,3.20
2024-01-16T10:43:35.404Z,3.60
2024-01-16T10:44:35.393Z,3.80
2024-01-16T10:45:35.361Z,3.50
2024-01-16T10:46:35.386Z,3.50
2024-01-16T10:47:35.416Z,3.70
2024-01-16T10:48:35.421Z,3.90
2024-01-16T10:49:43.029Z,3.50
2024-01-16T10:50:36.339Z,3.70
2024-01-16T10:51:35.298Z,4.10
2024-01-16T10:52:35.332Z,3.50
2024-01-16T10:53:35.315Z,4.30
2024-01-16T10:54:35.258Z,3.80
2024-01-16T10:55:35.270Z,3.50
2024-01-16T10:56:35.350Z,4.00
2024-01-16T10:57:35.222Z,4.10
2024-01-16T10:58:35.233Z,4.00
2024-01-16T10:59:35.259Z,3.70
2024-01-16T11:00:35.221Z,4.20
2024-01-16T11:01:35.172Z,4.20
2024-01-16T11:02:35.239Z,4.10
2024-01-16T11:03:35.146Z,3.80
2024-01-16T11:04:35.201Z,3.80
2024-01-16T11:05:35.153Z,4.60
2024-01-16T11:06:35.202Z,3.60
2024-01-16T11:07:35.140Z,4.40
2024-01-16T11:08:35.150Z,4.50
2024-01-16T11:09:35.081Z,4.00
2024-01-16T11:10:35.063Z,3.70
2024-01-16T11:11:35.650Z,3.60
2024-01-16T11:12:35.044Z,4.10
2024-01-16T11:13:35.036Z,3.70
2024-01-16T11:14:35.067Z,3.90
2024-01-16T11:15:35.659Z,3.80
2024-01-16T11:16:34.995Z,3.90
2024-01-16T11:17:35.041Z,4.10
2024-01-16T11:18:35.101Z,3.70
2024-01-16T11:19:48.313Z,4.00
2024-01-16T11:20:55.391Z,3.70
2024-01-16T11:21:35.957Z,3.80
2024-01-16T11:22:34.985Z,4.00
2024-01-16T11:23:34.949Z,4.10
2024-01-16T11:24:34.923Z,4.30
2024-01-16T11:25:34.932Z,3.80
2024-01-16T11:26:35.438Z,3.50
2024-01-16T11:27:34.857Z,3.90
2024-01-16T11:28:34.824Z,3.60
2024-01-16T11:29:34.815Z,4.40
2024-01-16T11:30:34.883Z,3.70
2024-01-16T11:31:34.998Z,4.00
2024-01-16T11:32:34.866Z,3.70
2024-01-16T11:33:35.177Z,3.40
2024-01-16T11:34:34.867Z,4.10
2024-01-16T11:35:34.745Z,3.70
2024-01-16T11:36:34.745Z,4.10
2024-01-16T11:37:34.768Z,3.70
2024-01-16T11:38:34.690Z,3.50
2024-01-16T11:39:34.669Z,4.20
2024-01-16T11:40:34.665Z,4.10
2024-01-16T11:41:42.407Z,4.20
2024-01-16T11:42:35.665Z,4.40
2024-01-16T11:43:34.863Z,4.20
2024-01-16T11:44:34.660Z,4.00
2024-01-16T11:45:34.604Z,4.10
2024-01-16T11:46:34.597Z,3.90
2024-01-16T11:47:34.672Z,3.70
2024-01-16T11:48:34.711Z,3.60
2024-01-16T11:49:34.670Z,3.60
2024-01-16T11:50:34.599Z,3.90
2024-01-16T11:51:34.508Z,3.40
2024-01-16T11:52:34.506Z,3.60
2024-01-16T11:53:34.593Z,4.40
2024-01-16T11:54:34.502Z,3.70
2024-01-16T11:55:34.533Z,4.00
2024-01-16T11:56:41.215Z,4.00
2024-01-16T11:57:35.479Z,4.30
2024-01-16T11:58:34.434Z,4.00
2024-01-16T11:59:34.439Z,3.90
2024-01-16T12:00:34.521Z,4.10
2024-01-16T12:01:34.436Z,3.90
2024-01-16T12:02:34.397Z,4.00
2024-01-16T12:03:35.709Z,4.00
2024-01-16T12:04:34.339Z,3.60
2024-01-16T12:05:34.443Z,3.90
2024-01-16T12:06:34.642Z,4.20
2024-01-16T12:07:34.410Z,3.80
2024-01-16T12:08:34.295Z,4.10
2024-01-16T12:09:34.345Z,3.90
2024-01-16T12:10:34.276Z,3.90
2024-01-16T12:11:42.786Z,3.90
2024-01-16T12:12:35.253Z,3.80
2024-01-16T12:13:34.260Z,3.90
2024-01-16T12:14:34.291Z,4.20
2024-01-16T12:15:34.275Z,4.00
2024-01-16T12:16:34.178Z,3.40
2024-01-16T12:17:34.250Z,3.80
2024-01-16T12:18:41.317Z,4.30
2024-01-16T12:19:35.318Z,4.00
2024-01-16T12:20:34.486Z,3.70
2024-01-16T12:21:34.148Z,3.70
2024-01-16T12:22:34.134Z,3.90
2024-01-16T12:23:34.125Z,3.70
2024-01-16T12:24:34.196Z,3.90
2024-01-16T12:26:00.483Z,3.40
2024-01-16T12:26:35.140Z,4.30
2024-01-16T12:27:34.090Z,4.10
2024-01-16T12:28:34.478Z,3.60
2024-01-16T12:29:34.185Z,4.00
2024-01-16T12:30:34.024Z,4.30
2024-01-16T12:31:34.009Z,3.80
2024-01-16T12:32:34.047Z,3.80
2024-01-16T12:33:34.180Z,3.90
2024-01-16T12:34:34.147Z,4.20
2024-01-16T12:35:34.054Z,4.20
2024-01-16T12:36:33.992Z,4.30
2024-01-16T12:37:33.933Z,3.50
2024-01-16T12:38:33.973Z,3.70
2024-01-16T12:39:33.929Z,3.60
2024-01-16T12:40:34.039Z,3.80
2024-01-16T12:41:41.467Z,3.60
2024-01-16T12:42:34.883Z,4.20
2024-01-16T12:43:33.930Z,4.00
2024-01-16T12:44:33.890Z,3.90
2024-01-16T12:45:33.903Z,4.40
2024-01-16T12:46:35.350Z,4.40
2024-01-16T12:47:33.935Z,3.80
2024-01-16T12:48:34.009Z,3.90
2024-01-16T12:49:33.828Z,3.80
2024-01-16T12:50:33.864Z,3.90
2024-01-16T12:51:33.784Z,4.10
2024-01-16T12:52:33.863Z,3.90
2024-01-16T12:53:33.776Z,3.80
2024-01-16T12:54:33.740Z,4.60
2024-01-16T12:55:33.879Z,3.40
2024-01-16T12:56:38.360Z,4.20
2024-01-16T12:57:34.670Z,4.10
2024-01-16T12:58:33.633Z,4.10
2024-01-16T12:59:33.731Z,3.70
2024-01-16T13:00:33.667Z,3.50
2024-01-16T13:01:39.335Z,3.90
2024-01-16T13:02:34.641Z,4.30
2024-01-16T13:03:33.640Z,3.80
2024-01-16T13:04:33.555Z,4.20
2024-01-16T13:05:33.613Z,4.50
2024-01-16T13:06:33.954Z,4.20
2024-01-16T13:07:33.557Z,4.20
2024-01-16T13:08:33.619Z,4.60
2024-01-16T13:09:33.494Z,4.00
2024-01-16T13:10:33.490Z,4.10
2024-01-16T13:11:39.105Z,4.30
2024-01-16T13:12:34.553Z,4.50
2024-01-16T13:13:33.469Z,4.10
2024-01-16T13:14:33.545Z,3.80
2024-01-16T13:15:33.455Z,3.80
2024-01-16T13:16:34.699Z,4.10